createdAt,value
2019-03-01T00:01:43.539Z,10.80
2019-03-01T00:04:27.672Z,8.60
2019-03-01T00:07:37.947Z,8.40
2019-03-01T00:10:48.518Z,10.53
2019-03-01T00:14:07.490Z,9.67
2019-03-01T00:17:00.554Z,9.67
2019-03-01T00:20:29.136Z,9.37
2019-03-01T00:23:18.614Z,7.47
2019-03-01T00:26:24.847Z,10.87
2019-03-01T00:29:21.278Z,8.87
2019-03-01T00:32:24.735Z,8.03
2019-03-01T00:35:11.239Z,10.10
2019-03-01T00:38:23.539Z,8.97
2019-03-01T00:41:21.202Z,12.70
2019-03-01T00:44:39.361Z,7.00
2019-03-01T00:47:10.713Z,10.37
2019-03-01T00:49:40.795Z,9.27
2019-03-01T00:52:11.242Z,8.80
2019-03-01T00:54:41.126Z,15.13
2019-03-01T00:57:10.877Z,9.43
2019-03-01T00:59:40.807Z,7.13
2019-03-01T01:02:10.786Z,7.60
2019-03-01T01:04:40.832Z,8.27
2019-03-01T01:07:10.660Z,13.20
2019-03-01T01:09:40.521Z,8.17
2019-03-01T01:12:10.731Z,8.60
2019-03-01T01:14:40.371Z,8.33
2019-03-01T01:17:10.139Z,11.00
2019-03-01T01:19:40.041Z,11.67
2019-03-01T01:22:10.052Z,13.40
2019-03-01T01:24:39.944Z,9.70
2019-03-01T01:27:09.658Z,11.53
2019-03-01T01:29:39.488Z,12.80
2019-03-01T01:32:10.642Z,11.67
2019-03-01T01:34:40.524Z,9.53
2019-03-01T01:37:10.342Z,6.17
2019-03-01T01:39:40.361Z,7.40
2019-03-01T01:42:10.288Z,13.07
2019-03-01T01:44:40.111Z,10.00
2019-03-01T01:47:09.961Z,7.37
2019-03-01T01:49:39.833Z,11.00
2019-03-01T01:52:09.746Z,13.47
2019-03-01T01:54:39.846Z,12.57
2019-03-01T01:57:09.592Z,10.07
2019-03-01T01:59:39.507Z,11.37
2019-03-01T02:02:09.470Z,12.70
2019-03-01T02:04:39.454Z,12.33
2019-03-01T02:07:09.370Z,11.27
2019-03-01T02:09:39.596Z,10.17
2019-03-01T02:12:09.428Z,12.77
2019-03-01T02:14:39.302Z,9.07
2019-03-01T02:17:09.208Z,15.57
2019-03-01T02:19:39.070Z,9.67
2019-03-01T02:22:08.864Z,10.03
2019-03-01T02:24:38.677Z,8.33
2019-03-01T02:27:28.702Z,11.97
2019-03-01T02:29:59.276Z,13.97
2019-03-01T02:32:46.399Z,10.20
2019-03-01T02:35:17.890Z,9.63
2019-03-01T02:37:47.698Z,9.57
2019-03-01T02:40:18.079Z,8.87
2019-03-01T02:42:47.942Z,8.93
2019-03-01T02:45:19.281Z,8.80
2019-03-01T02:47:49.263Z,11.10
2019-03-01T02:50:19.731Z,14.27
2019-03-01T02:52:49.971Z,9.87
2019-03-01T02:55:20.678Z,8.60
2019-03-01T02:57:50.710Z,8.30
2019-03-01T03:00:22.474Z,13.40
2019-03-01T03:02:52.469Z,9.50
2019-03-01T03:05:22.401Z,12.20
2019-03-01T03:08:07.076Z,9.97
2019-03-01T03:10:36.957Z,10.67
2019-03-01T03:13:09.062Z,13.73
2019-03-01T03:15:47.062Z,16.53
2019-03-01T03:18:17.194Z,9.23
2019-03-01T03:20:46.978Z,10.63
2019-03-01T03:23:16.886Z,9.07
2019-03-01T03:25:46.617Z,15.43
2019-03-01T03:28:16.439Z,9.17
2019-03-01T03:30:46.395Z,10.17
2019-03-01T03:33:16.153Z,9.13
2019-03-01T03:35:45.961Z,10.33
2019-03-01T03:38:15.837Z,7.93
2019-03-01T03:40:45.680Z,10.43
2019-03-01T03:43:15.589Z,10.87
2019-03-01T03:45:45.330Z,10.47
2019-03-01T03:48:15.241Z,9.07
2019-03-01T03:50:45.105Z,7.23
2019-03-01T03:53:14.972Z,7.73
2019-03-01T03:55:44.798Z,8.80
2019-03-01T03:58:15.288Z,7.83
2019-03-01T04:00:45.348Z,8.90
2019-03-01T04:03:15.379Z,9.30
2019-03-01T04:05:45.161Z,8.00
2019-03-01T04:08:15.093Z,10.47
2019-03-01T04:10:44.941Z,9.47
2019-03-01T04:13:16.819Z,10.13
2019-03-01T04:15:46.465Z,14.13
2019-03-01T04:18:16.353Z,7.53
2019-03-01T04:20:45.991Z,7.77
2019-03-01T04:23:15.822Z,9.33
2019-03-01T04:25:45.677Z,8.90
2019-03-01T04:28:15.461Z,8.90
2019-03-01T04:30:45.476Z,9.57
2019-03-01T04:33:15.374Z,7.67
2019-03-01T04:35:45.317Z,7.03
2019-03-01T04:38:16.382Z,13.50
2019-03-01T04:40:46.250Z,10.63
2019-03-01T04:43:16.070Z,11.53
2019-03-01T04:45:45.995Z,15.43
2019-03-01T04:48:15.939Z,7.47
2019-03-01T04:50:45.710Z,11.47
2019-03-01T04:53:15.475Z,9.33
2019-03-01T04:55:45.424Z,10.67
2019-03-01T04:58:15.274Z,9.17
2019-03-01T05:00:46.452Z,9.23
2019-03-01T05:03:16.263Z,11.83
2019-03-01T05:05:45.929Z,10.80
2019-03-01T05:08:15.643Z,15.23
2019-03-01T05:10:45.530Z,14.23
2019-03-01T05:13:15.598Z,12.20
2019-03-01T05:15:45.476Z,10.30
2019-03-01T05:18:15.340Z,10.33
2019-03-01T05:20:45.348Z,10.87
2019-03-01T05:23:15.199Z,9.93
2019-03-01T05:25:44.963Z,13.17
2019-03-01T05:28:14.999Z,11.47
2019-03-01T05:30:44.827Z,11.60
2019-03-01T05:33:14.705Z,10.63
2019-03-01T05:35:44.571Z,9.43
2019-03-01T05:38:21.507Z,12.17
2019-03-01T05:40:45.591Z,11.17
2019-03-01T05:43:15.437Z,8.73
2019-03-01T05:45:45.335Z,13.10
2019-03-01T05:48:15.126Z,12.43
2019-03-01T05:50:45.054Z,12.47
2019-03-01T05:53:14.923Z,11.10
2019-03-01T05:55:44.671Z,12.03
2019-03-01T05:58:49.977Z,10.77
2019-03-01T06:01:32.458Z,16.50
2019-03-01T06:04:21.178Z,11.70
2019-03-01T06:07:38.336Z,12.80
2019-03-01T06:10:57.695Z,14.53
2019-03-01T06:14:26.502Z,16.60
2019-03-01T06:17:41.636Z,12.83
2019-03-01T06:20:50.505Z,14.07
2019-03-01T06:24:13.019Z,11.97
2019-03-01T06:27:08.383Z,14.47
2019-03-01T06:30:08.885Z,14.93
2019-03-01T06:33:28.025Z,13.40
2019-03-01T06:36:22.674Z,11.40
2019-03-01T06:39:46.641Z,14.63
2019-03-01T06:42:36.041Z,12.00
2019-03-01T06:45:31.773Z,10.23
2019-03-01T06:48:01.643Z,15.73
2019-03-01T06:50:48.455Z,14.00
2019-03-01T06:53:18.215Z,16.13
2019-03-01T06:55:50.655Z,15.30
2019-03-01T06:58:45.105Z,9.13
2019-03-01T07:01:24.374Z,9.33
2019-03-01T07:04:07.361Z,9.17
2019-03-01T07:06:37.248Z,12.40
2019-03-01T07:09:08.186Z,14.83
2019-03-01T07:11:38.070Z,20.00
2019-03-01T07:14:08.131Z,20.90
2019-03-01T07:16:38.116Z,13.07
2019-03-01T07:19:08.229Z,15.77
2019-03-01T07:21:38.186Z,12.33
2019-03-01T07:24:08.416Z,13.43
2019-03-01T07:26:38.475Z,13.07
2019-03-01T07:29:08.316Z,15.37
2019-03-01T07:31:38.047Z,12.60
2019-03-01T07:34:07.897Z,11.50
2019-03-01T07:36:37.760Z,10.17
2019-03-01T07:39:09.940Z,14.67
2019-03-01T07:41:39.807Z,11.33
2019-03-01T07:44:09.558Z,7.57
2019-03-01T07:46:39.370Z,11.70
2019-03-01T07:49:09.214Z,12.17
2019-03-01T07:51:40.372Z,11.53
2019-03-01T07:54:13.362Z,12.77
2019-03-01T07:56:41.708Z,14.50
2019-03-01T07:59:11.569Z,15.77
2019-03-01T08:01:41.446Z,13.60
2019-03-01T08:04:11.242Z,12.43
2019-03-01T08:06:41.192Z,17.60
2019-03-01T08:09:14.482Z,22.30
2019-03-01T08:11:44.896Z,17.70
2019-03-01T08:14:14.852Z,19.03
2019-03-01T08:16:44.614Z,16.57
2019-03-01T08:19:15.683Z,20.03
2019-03-01T08:21:49.709Z,14.37
2019-03-01T08:24:17.748Z,13.40
2019-03-01T08:26:47.665Z,13.20
2019-03-01T08:29:18.815Z,11.83
2019-03-01T08:31:48.823Z,17.77
2019-03-01T08:34:18.669Z,13.40
2019-03-01T08:36:48.506Z,14.70
2019-03-01T08:39:18.282Z,19.03
2019-03-01T08:41:48.190Z,21.40
2019-03-01T08:44:23.007Z,30.67
2019-03-01T08:46:50.898Z,41.93
2019-03-01T08:49:20.721Z,41.07
2019-03-01T08:51:50.477Z,39.97
2019-03-01T08:54:22.858Z,30.50
2019-03-01T08:56:52.324Z,22.70
2019-03-01T08:59:22.160Z,19.43
2019-03-01T09:01:51.918Z,18.20
2019-03-01T09:04:21.754Z,32.83
2019-03-01T09:06:51.730Z,36.07
2019-03-01T09:09:21.976Z,27.33
2019-03-01T09:11:51.896Z,28.10
2019-03-01T09:14:22.818Z,21.40
2019-03-01T09:16:53.362Z,24.00
2019-03-01T09:19:25.228Z,21.60
2019-03-01T09:21:56.101Z,22.83
2019-03-01T09:24:29.256Z,15.50
2019-03-01T09:26:57.553Z,20.03
2019-03-01T09:29:27.605Z,20.43
2019-03-01T09:31:58.543Z,22.10
2019-03-01T09:34:31.744Z,20.27
2019-03-01T09:37:00.156Z,16.47
2019-03-01T09:39:29.978Z,24.17
2019-03-01T09:42:03.253Z,19.83
2019-03-01T09:44:34.657Z,24.33
2019-03-01T09:47:02.810Z,25.73
2019-03-01T09:49:32.773Z,20.53
2019-03-01T09:52:02.645Z,23.13
2019-03-01T09:54:32.466Z,24.20
2019-03-01T09:57:02.194Z,28.10
2019-03-01T09:59:32.012Z,24.30
2019-03-01T10:02:02.070Z,24.13
2019-03-01T10:04:32.070Z,29.50
2019-03-01T10:07:01.936Z,26.03
2019-03-01T10:09:31.811Z,20.73
2019-03-01T10:12:01.497Z,25.50
2019-03-01T10:14:31.292Z,21.30
2019-03-01T10:17:01.253Z,21.00
2019-03-01T10:19:30.930Z,25.07
2019-03-01T10:22:00.745Z,22.50
2019-03-01T10:24:30.572Z,25.07
2019-03-01T10:27:00.474Z,24.97
2019-03-01T10:29:30.443Z,22.60
2019-03-01T10:32:00.426Z,24.23
2019-03-01T10:34:30.209Z,22.53
2019-03-01T10:37:00.131Z,17.83
2019-03-01T10:39:29.978Z,24.20
2019-03-01T10:41:59.649Z,23.80
2019-03-01T10:44:29.479Z,23.57
2019-03-01T10:46:59.646Z,21.57
2019-03-01T10:49:29.519Z,21.87
2019-03-01T10:51:59.428Z,23.97
2019-03-01T10:54:29.413Z,22.77
2019-03-01T10:56:59.259Z,21.33
2019-03-01T10:59:30.569Z,20.53
2019-03-01T11:02:00.429Z,25.13
2019-03-01T11:04:30.187Z,20.83
2019-03-01T11:07:00.040Z,21.67
2019-03-01T11:09:29.916Z,21.67
2019-03-01T11:11:59.777Z,21.60
2019-03-01T11:14:29.746Z,21.20
2019-03-01T11:16:59.620Z,22.33
2019-03-01T11:19:29.540Z,20.80
2019-03-01T11:21:59.416Z,21.43
2019-03-01T11:24:29.251Z,23.37
2019-03-01T11:26:59.068Z,21.97
2019-03-01T11:29:29.046Z,18.60
2019-03-01T11:31:58.964Z,22.20
2019-03-01T11:34:28.827Z,20.23
2019-03-01T11:36:58.675Z,16.20
2019-03-01T11:39:28.465Z,17.47
2019-03-01T11:41:58.381Z,19.20
2019-03-01T11:44:28.672Z,20.23
2019-03-01T11:46:58.523Z,18.43
2019-03-01T11:49:28.342Z,14.80
2019-03-01T11:51:58.364Z,15.33
2019-03-01T11:54:28.272Z,17.13
2019-03-01T11:56:58.208Z,13.83
2019-03-01T11:59:29.638Z,16.13
2019-03-01T12:01:59.439Z,19.17
2019-03-01T12:04:30.519Z,16.67
2019-03-01T12:07:00.391Z,18.83
2019-03-01T12:09:30.307Z,14.83
2019-03-01T12:12:01.797Z,15.23
2019-03-01T12:14:31.445Z,17.90
2019-03-01T12:17:01.269Z,16.57
2019-03-01T12:19:31.101Z,13.43
2019-03-01T12:22:01.103Z,11.90
2019-03-01T12:24:30.848Z,12.87
2019-03-01T12:27:00.966Z,13.73
2019-03-01T12:29:30.767Z,14.37
2019-03-01T12:32:00.708Z,12.47
2019-03-01T12:34:30.565Z,14.10
2019-03-01T12:37:00.419Z,14.03
2019-03-01T12:39:30.232Z,14.17
2019-03-01T12:42:01.316Z,13.97
2019-03-01T12:44:31.201Z,13.80
2019-03-01T12:47:01.103Z,13.63
2019-03-01T12:49:31.073Z,12.33
2019-03-01T12:52:00.955Z,13.50
2019-03-01T12:54:30.862Z,16.07
2019-03-01T12:57:01.923Z,13.33
2019-03-01T12:59:31.857Z,12.80
2019-03-01T13:02:01.830Z,12.73
2019-03-01T13:04:31.651Z,11.63
2019-03-01T13:07:01.587Z,12.67
2019-03-01T13:09:31.542Z,10.63
2019-03-01T13:12:01.402Z,13.83
2019-03-01T13:14:31.232Z,11.50
2019-03-01T13:17:01.740Z,14.10
2019-03-01T13:19:32.493Z,16.13
2019-03-01T13:22:02.394Z,9.87
2019-03-01T13:24:32.461Z,11.77
2019-03-01T13:27:02.226Z,8.23
2019-03-01T13:29:33.322Z,13.93
2019-03-01T13:32:05.263Z,12.13
2019-03-01T13:34:35.052Z,12.10
2019-03-01T13:37:04.966Z,14.50
2019-03-01T13:39:34.916Z,9.77
2019-03-01T13:42:04.811Z,12.07
2019-03-01T13:44:36.071Z,13.00
2019-03-01T13:47:08.727Z,10.63
2019-03-01T13:49:37.871Z,10.00
2019-03-01T13:52:07.903Z,10.23
2019-03-01T13:54:37.683Z,13.43
2019-03-01T13:57:08.317Z,10.30
2019-03-01T13:59:40.384Z,11.67
2019-03-01T14:02:10.106Z,13.17
2019-03-01T14:04:41.186Z,12.33
2019-03-01T14:07:11.329Z,12.17
2019-03-01T14:09:41.692Z,11.60
2019-03-01T14:12:11.396Z,11.37
2019-03-01T14:14:41.462Z,10.97
2019-03-01T14:17:11.107Z,10.80
2019-03-01T14:19:42.301Z,9.47
2019-03-01T14:22:13.998Z,10.37
2019-03-01T14:24:43.877Z,9.47
2019-03-01T14:27:13.868Z,13.33
2019-03-01T14:29:43.675Z,13.10
2019-03-01T14:32:20.727Z,7.60
2019-03-01T14:34:48.663Z,8.23
2019-03-01T14:37:19.287Z,10.53
2019-03-01T14:39:49.356Z,7.27
2019-03-01T14:42:19.239Z,11.13
2019-03-01T14:44:49.040Z,8.00
2019-03-01T14:47:19.743Z,13.63
2019-03-01T14:49:49.571Z,9.20
2019-03-01T14:52:21.282Z,9.63
2019-03-01T14:54:51.317Z,9.73
2019-03-01T14:57:34.555Z,12.40
2019-03-01T15:00:33.769Z,10.07
2019-03-01T15:03:28.012Z,8.27
2019-03-01T15:05:57.873Z,10.23
2019-03-01T15:08:27.708Z,9.37
2019-03-01T15:10:58.359Z,11.90
2019-03-01T15:13:31.394Z,11.20
2019-03-01T15:16:01.115Z,10.47
2019-03-01T15:18:32.247Z,12.03
2019-03-01T15:21:02.918Z,10.73
2019-03-01T15:23:32.747Z,11.03
2019-03-01T15:26:03.853Z,6.90
2019-03-01T15:28:35.756Z,9.27
2019-03-01T15:31:05.598Z,8.47
2019-03-01T15:33:35.364Z,10.23
2019-03-01T15:36:05.273Z,10.30
2019-03-01T15:38:35.230Z,7.70
2019-03-01T15:41:06.612Z,9.40
2019-03-01T15:43:36.380Z,6.63
2019-03-01T15:46:06.279Z,7.57
2019-03-01T15:48:38.315Z,11.17
2019-03-01T15:51:07.988Z,9.13
2019-03-01T15:53:37.750Z,10.13
2019-03-01T15:56:07.950Z,9.03
2019-03-01T15:58:37.904Z,8.90
2019-03-01T16:01:12.001Z,10.57
2019-03-01T16:03:42.270Z,11.87
2019-03-01T16:06:17.269Z,8.43
2019-03-01T16:08:47.583Z,9.27
2019-03-01T16:11:16.503Z,11.43
2019-03-01T16:13:49.037Z,10.93
2019-03-01T16:16:17.773Z,13.40
2019-03-01T16:18:47.681Z,10.97
2019-03-01T16:21:17.561Z,17.23
2019-03-01T16:23:47.410Z,11.10
2019-03-01T16:26:17.405Z,8.60
2019-03-01T16:28:47.163Z,13.67
2019-03-01T16:31:18.315Z,13.00
2019-03-01T16:33:48.240Z,12.07
2019-03-01T16:36:26.471Z,14.10
2019-03-01T16:38:55.129Z,15.67
2019-03-01T16:41:24.915Z,12.40
2019-03-01T16:43:54.732Z,19.73
2019-03-01T16:46:24.695Z,17.23
2019-03-01T16:48:54.569Z,18.20
2019-03-01T16:51:24.481Z,15.47
2019-03-01T16:53:54.456Z,24.27
2019-03-01T16:56:26.464Z,21.20
2019-03-01T16:58:55.975Z,20.53
2019-03-01T17:01:26.034Z,23.27
2019-03-01T17:03:57.613Z,20.60
2019-03-01T17:06:27.562Z,25.37
2019-03-01T17:08:57.290Z,18.13
2019-03-01T17:11:27.048Z,25.23
2019-03-01T17:13:59.569Z,22.57
2019-03-01T17:16:28.271Z,18.30
2019-03-01T17:18:58.109Z,30.70
2019-03-01T17:21:27.912Z,22.30
2019-03-01T17:23:57.694Z,23.03
2019-03-01T17:26:29.883Z,22.87
2019-03-01T17:28:59.689Z,24.73
2019-03-01T17:31:30.737Z,22.87
2019-03-01T17:34:00.640Z,24.43
2019-03-01T17:36:30.387Z,25.83
2019-03-01T17:39:00.154Z,24.50
2019-03-01T17:41:29.877Z,42.73
2019-03-01T17:44:01.016Z,30.97
2019-03-01T17:46:32.973Z,55.83
2019-03-01T17:49:02.186Z,43.87
2019-03-01T17:51:33.240Z,33.07
2019-03-01T17:54:03.047Z,28.67
2019-03-01T17:56:32.952Z,26.43
2019-03-01T17:59:04.303Z,38.43
2019-03-01T18:01:35.547Z,41.57
2019-03-01T18:04:05.784Z,36.43
2019-03-01T18:06:35.763Z,38.07
2019-03-01T18:09:06.554Z,40.33
2019-03-01T18:11:36.519Z,34.57
2019-03-01T18:14:06.261Z,39.20
2019-03-01T18:16:36.291Z,37.50
2019-03-01T18:19:06.028Z,36.93
2019-03-01T18:21:35.977Z,30.93
2019-03-01T18:24:06.235Z,33.27
2019-03-01T18:26:36.351Z,33.10
2019-03-01T18:29:08.534Z,34.37
2019-03-01T18:31:38.343Z,33.47
2019-03-01T18:34:08.058Z,68.33
2019-03-01T18:36:38.023Z,37.33
2019-03-01T18:39:12.303Z,36.60
2019-03-01T18:41:42.100Z,40.73
2019-03-01T18:44:11.922Z,37.60
2019-03-01T18:46:41.672Z,36.30
2019-03-01T18:49:11.470Z,33.37
2019-03-01T18:51:43.285Z,30.40
2019-03-01T18:54:14.363Z,29.60
2019-03-01T18:56:44.431Z,32.73
2019-03-01T18:59:14.299Z,34.67
2019-03-01T19:01:46.414Z,34.73
2019-03-01T19:04:16.698Z,31.50
2019-03-01T19:06:48.410Z,45.37
2019-03-01T19:09:18.693Z,37.57
2019-03-01T19:11:48.593Z,37.73
2019-03-01T19:14:18.694Z,41.13
2019-03-01T19:16:48.416Z,41.03
2019-03-01T19:19:18.274Z,47.53
2019-03-01T19:21:49.560Z,41.73
2019-03-01T19:24:19.492Z,36.70
2019-03-01T19:26:49.479Z,38.90
2019-03-01T19:29:19.316Z,41.60
2019-03-01T19:31:49.244Z,42.93
2019-03-01T19:34:20.335Z,34.77
2019-03-01T19:36:50.097Z,37.53
2019-03-01T19:39:23.439Z,33.67
2019-03-01T19:41:54.542Z,47.73
2019-03-01T19:44:25.633Z,45.23
2019-03-01T19:46:56.553Z,45.27
2019-03-01T19:49:26.424Z,71.03
2019-03-01T19:51:56.170Z,60.90
2019-03-01T19:54:26.404Z,57.17
2019-03-01T19:56:57.724Z,50.60
2019-03-01T19:59:27.647Z,52.30
2019-03-01T20:01:57.504Z,54.40
2019-03-01T20:04:27.378Z,57.27
2019-03-01T20:06:57.720Z,67.97
2019-03-01T20:09:28.891Z,67.60
2019-03-01T20:11:59.302Z,51.63
2019-03-01T20:14:33.635Z,46.93
2019-03-01T20:17:02.041Z,75.97
2019-03-01T20:19:31.808Z,40.83
2019-03-01T20:22:01.620Z,32.93
2019-03-01T20:24:31.527Z,31.23
2019-03-01T20:27:03.077Z,31.70
2019-03-01T20:29:32.887Z,30.97
2019-03-01T20:32:04.394Z,29.07
2019-03-01T20:34:34.773Z,33.43
2019-03-01T20:37:06.981Z,42.17
2019-03-01T20:39:38.012Z,46.00
2019-03-01T20:42:07.419Z,48.57
2019-03-01T20:44:37.107Z,48.93
2019-03-01T20:47:08.168Z,45.03
2019-03-01T20:49:39.440Z,39.97
2019-03-01T20:52:09.841Z,39.77
2019-03-01T20:54:39.798Z,29.70
2019-03-01T20:57:09.653Z,32.33
2019-03-01T20:59:39.403Z,29.83
2019-03-01T21:02:09.583Z,27.77
2019-03-01T21:04:53.031Z,37.03
2019-03-01T21:07:15.696Z,38.23
2019-03-01T21:09:45.095Z,33.60
2019-03-01T21:12:15.104Z,33.17
2019-03-01T21:14:44.940Z,31.13
2019-03-01T21:17:16.817Z,32.17
2019-03-01T21:19:46.607Z,35.87
2019-03-01T21:22:16.504Z,38.20
2019-03-01T21:24:46.365Z,33.37
2019-03-01T21:27:16.121Z,40.30
2019-03-01T21:29:47.612Z,39.33
2019-03-01T21:32:17.819Z,41.33
2019-03-01T21:34:47.923Z,38.97
2019-03-01T21:37:19.120Z,43.37
2019-03-01T21:39:48.812Z,36.30
2019-03-01T21:42:20.304Z,38.90
2019-03-01T21:44:50.470Z,42.90
2019-03-01T21:47:20.399Z,39.63
2019-03-01T21:49:50.240Z,37.53
2019-03-01T21:52:20.010Z,36.07
2019-03-01T21:54:52.040Z,44.93
2019-03-01T21:57:22.742Z,40.33
2019-03-01T21:59:53.752Z,41.67
2019-03-01T22:02:23.466Z,40.97
2019-03-01T22:04:53.658Z,39.17
2019-03-01T22:07:23.306Z,37.73
2019-03-01T22:09:53.233Z,42.23
2019-03-01T22:12:24.681Z,40.93
2019-03-01T22:14:54.502Z,39.47
2019-03-01T22:17:24.409Z,40.40
2019-03-01T22:19:54.205Z,35.37
2019-03-01T22:22:24.017Z,40.63
2019-03-01T22:24:53.872Z,42.37
2019-03-01T22:27:25.306Z,40.10
2019-03-01T22:29:55.207Z,38.57
2019-03-01T22:32:25.075Z,39.47
2019-03-01T22:34:54.932Z,49.07
2019-03-01T22:37:28.453Z,45.23
2019-03-01T22:39:56.494Z,37.70
2019-03-01T22:42:26.339Z,39.17
2019-03-01T22:44:56.320Z,40.77
2019-03-01T22:47:26.226Z,43.87
2019-03-01T22:49:56.086Z,41.90
2019-03-01T22:52:26.723Z,39.90
2019-03-01T22:55:01.323Z,44.70
2019-03-01T22:57:29.005Z,46.43
2019-03-01T22:59:58.900Z,46.87
2019-03-01T23:02:29.924Z,46.83
2019-03-01T23:05:00.443Z,38.10
2019-03-01T23:07:31.258Z,45.93
2019-03-01T23:10:01.278Z,45.20
2019-03-01T23:12:31.156Z,44.63
2019-03-01T23:15:02.805Z,42.37
2019-03-01T23:17:32.363Z,41.70
2019-03-01T23:20:02.249Z,40.33
2019-03-01T23:22:32.061Z,39.13
2019-03-01T23:25:02.134Z,45.30
2019-03-01T23:27:32.724Z,46.37
2019-03-01T23:30:02.419Z,39.40
2019-03-01T23:32:32.157Z,47.10
2019-03-01T23:35:02.011Z,39.97
2019-03-01T23:37:31.894Z,43.30
2019-03-01T23:40:02.409Z,45.93
2019-03-01T23:42:32.250Z,48.77
2019-03-01T23:45:02.182Z,41.00
2019-03-01T23:47:34.724Z,44.67
2019-03-01T23:50:03.826Z,44.83
2019-03-01T23:52:33.660Z,46.67
2019-03-01T23:55:03.521Z,44.20
2019-03-01T23:57:33.764Z,46.50
